Time,TemperatureF,DewpointF,PressureIn,WindDirection,WindDirectionDegrees,WindSpeedMPH,WindSpeedGustMPH,Humidity,HourlyPrecipIn,Conditions,Clouds,dailyrainin,SoftwareType,DateUTC
2013-04-04 00:00:00,34.9,29.4,30.34,SW,226,4.0,7.0,80,0.00,,CLR,0.00,VWS V13.01,2013-04-04 04:00:00,
2013-04-04 00:01:00,34.9,29.7,30.34,SW,221,6.0,7.0,81,0.00,,CLR,0.00,VWS V13.01,2013-04-04 04:01:00,
2013-04-04 00:06:00,34.9,29.4,30.34,SW,219,5.0,7.0,80,0.00,,CLR,0.00,VWS V13.01,2013-04-04 04:06:00,
2013-04-04 00:11:00,34.9,28.8,30.34,SW,218,7.0,8.0,78,0.00,,CLR,0.00,VWS V13.01,2013-04-04 04:11:00,
2013-04-04 00:16:00,35.0,28.9,30.34,SW,220,7.0,9.0,78,0.00,,CLR,0.00,VWS V13.01,2013-04-04 04:16:00,
2013-04-04 00:21:00,35.0,28.5,30.33,SW,220,9.0,10.0,77,0.00,,CLR,0.00,VWS V13.01,2013-04-04 04:21:00,
2013-04-04 00:26:00,34.9,28.8,30.33,SSW,207,7.0,10.0,78,0.00,,CLR,0.00,VWS V13.01,2013-04-04 04:26:00,
2013-04-04 00:32:00,34.9,28.4,30.33,SSW,208,7.0,10.0,77,0.00,,CLR,0.00,VWS V13.01,2013-04-04 04:32:00,
2013-04-04 00:36:00,34.8,28.0,30.33,SSW,208,8.0,12.0,76,0.00,,CLR,0.00,VWS V13.01,2013-04-04 04:36:00,
2013-04-04 00:42:00,34.9,27.8,30.33,SW,225,11.0,12.0,75,0.00,,CLR,0.00,VWS V13.01,2013-04-04 04:42:00,
2013-04-04 00:47:00,34.9,27.8,30.33,SSW,211,10.0,12.0,75,0.00,,CLR,0.00,VWS V13.01,2013-04-04 04:47:00,
2013-04-04 00:52:00,34.9,28.1,30.32,SW,223,8.0,11.0,76,0.00,,CLR,0.00,VWS V13.01,2013-04-04 04:52:00,
2013-04-04 00:57:00,34.8,27.7,30.32,SW,221,10.0,12.0,75,0.00,,CLR,0.00,VWS V13.01,2013-04-04 04:57:00,
2013-04-04 01:02:00,34.9,27.1,30.32,SW,216,9.0,14.0,73,0.00,,CLR,0.00,VWS V13.01,2013-04-04 05:02:00,
2013-04-04 01:07:00,34.9,28.1,30.32,SSW,210,8.0,12.0,76,0.00,,CLR,0.00,VWS V13.01,2013-04-04 05:07:00,
2013-04-04 01:12:00,34.9,27.1,30.32,SW,224,10.0,13.0,73,0.00,,CLR,0.00,VWS V13.01,2013-04-04 05:12:00,
2013-04-04 01:17:00,34.8,27.7,30.32,SW,216,11.0,12.0,75,0.00,,CLR,0.00,VWS V13.01,2013-04-04 05:17:00,
2013-04-04 01:22:00,34.8,27.4,30.32,SW,229,8.0,12.0,74,0.00,,CLR,0.00,VWS V13.01,2013-04-04 05:22:00,
2013-04-04 01:27:00,34.8,27.0,30.32,SSW,208,11.0,11.0,73,0.00,,CLR,0.00,VWS V13.01,2013-04-04 05:27:00,
2013-04-04 01:32:00,34.8,27.0,30.32,SW,219,10.0,12.0,73,0.00,,CLR,0.00,VWS V13.01,2013-04-04 05:32:00,
2013-04-04 01:37:00,34.8,26.7,30.32,SW,218,10.0,13.0,72,0.00,,CLR,0.00,VWS V13.01,2013-04-04 05:37:00,
2013-04-04 01:42:00,34.7,27.0,30.32,SW,228,9.0,12.0,73,0.00,,CLR,0.00,VWS V13.01,2013-04-04 05:42:00,
2013-04-04 01:47:00,34.7,27.3,30.32,SSW,213,7.0,11.0,74,0.00,,CLR,0.00,VWS V13.01,2013-04-04 05:47:00,
2013-04-04 01:52:00,34.8,26.7,30.32,SW,230,12.0,12.0,72,0.00,,CLR,0.00,VWS V13.01,2013-04-04 05:52:00,
2013-04-04 01:57:00,34.7,27.0,30.32,SW,227,10.0,12.0,73,0.00,,CLR,0.00,VWS V13.01,2013-04-04 05:57:00,
2013-04-04 02:02:00,34.8,27.4,30.32,SW,217,11.0,13.0,74,0.00,,CLR,0.00,VWS V13.01,2013-04-04 06:02:00,
2013-04-04 02:07:00,34.8,27.0,30.32,SSW,208,9.0,13.0,73,0.00,,CLR,0.00,VWS V13.01,2013-04-04 06:07:00,
2013-04-04 02:12:00,34.9,26.8,30.32,SW,218,11.0,15.0,72,0.00,,CLR,0.00,VWS V13.01,2013-04-04 06:12:00,
2013-04-04 02:17:00,34.9,26.5,30.31,SSW,211,11.0,14.0,71,0.00,,CLR,0.00,VWS V13.01,2013-04-04 06:17:00,
2013-04-04 02:23:00,34.9,26.8,30.31,SW,227,13.0,14.0,72,0.00,,CLR,0.00,VWS V13.01,2013-04-04 06:23:00,
2013-04-04 02:28:00,34.9,26.8,30.31,SSW,210,12.0,13.0,72,0.00,,CLR,0.00,VWS V13.01,2013-04-04 06:28:00,
2013-04-04 02:33:00,34.8,26.7,30.31,SW,219,11.0,14.0,72,0.00,,CLR,0.00,VWS V13.01,2013-04-04 06:33:00,
2013-04-04 02:38:00,34.8,26.4,30.31,SW,232,11.0,14.0,71,0.00,,CLR,0.00,VWS V13.01,2013-04-04 06:38:00,
2013-04-04 02:43:00,34.7,26.6,30.31,SW,225,9.0,14.0,72,0.00,,CLR,0.00,VWS V13.01,2013-04-04 06:43:00,
2013-04-04 02:48:00,34.3,26.6,30.30,SW,231,8.0,11.0,73,0.00,,CLR,0.00,VWS V13.01,2013-04-04 06:48:00,
2013-04-04 02:53:00,34.2,26.5,30.30,WSW,241,9.0,13.0,73,0.00,,CLR,0.00,VWS V13.01,2013-04-04 06:53:00,
2013-04-04 02:58:00,34.0,26.3,30.30,SW,223,9.0,11.0,73,0.00,,CLR,0.00,VWS V13.01,2013-04-04 06:58:00,
2013-04-04 03:03:00,33.9,25.8,30.30,SW,234,9.0,12.0,72,0.00,,CLR,0.00,VWS V13.01,2013-04-04 07:03:00,
2013-04-04 03:08:00,33.8,26.1,30.30,SSW,210,6.0,12.0,73,0.00,,CLR,0.00,VWS V13.01,2013-04-04 07:08:00,
2013-04-04 03:13:00,33.8,25.7,30.29,SW,221,9.0,12.0,72,0.00,,CLR,0.00,VWS V13.01,2013-04-04 07:13:00,
2013-04-04 03:18:00,33.7,25.6,30.29,SW,215,9.0,12.0,72,0.00,,CLR,0.00,VWS V13.01,2013-04-04 07:18:00,
2013-04-04 03:23:00,33.7,26.3,30.29,SSW,213,12.0,13.0,74,0.00,,CLR,0.00,VWS V13.01,2013-04-04 07:23:00,
2013-04-04 03:28:00,33.8,25.4,30.29,SW,225,10.0,14.0,71,0.00,,CLR,0.00,VWS V13.01,2013-04-04 07:28:00,
2013-04-04 03:33:00,33.7,25.0,30.29,SW,229,12.0,14.0,70,0.00,,CLR,0.00,VWS V13.01,2013-04-04 07:33:00,
2013-04-04 03:38:00,33.7,25.0,30.29,SW,221,11.0,14.0,70,0.00,,CLR,0.00,VWS V13.01,2013-04-04 07:38:00,
2013-04-04 03:43:00,33.7,25.3,30.28,SW,221,10.0,14.0,71,0.00,,CLR,0.00,VWS V13.01,2013-04-04 07:43:00,
2013-04-04 03:48:00,33.4,24.3,30.28,SW,227,10.0,14.0,69,0.00,,CLR,0.00,VWS V13.01,2013-04-04 07:48:00,
2013-04-04 03:53:00,33.4,24.7,30.28,SSW,213,11.0,13.0,70,0.00,,CLR,0.00,VWS V13.01,2013-04-04 07:53:00,
2013-04-04 03:58:00,33.3,24.9,30.28,SW,219,11.0,12.0,71,0.00,,CLR,0.00,VWS V13.01,2013-04-04 07:58:00,
2013-04-04 04:03:00,33.3,24.6,30.28,SSW,207,10.0,13.0,70,0.00,,CLR,0.00,VWS V13.01,2013-04-04 08:03:00,
2013-04-04 04:08:00,33.2,24.5,30.28,SW,219,10.0,13.0,70,0.00,,CLR,0.00,VWS V13.01,2013-04-04 08:08:00,
2013-04-04 04:13:00,33.0,25.0,30.27,SW,215,11.0,13.0,72,0.00,,CLR,0.00,VWS V13.01,2013-04-04 08:13:00,
2013-04-04 04:18:00,33.0,25.0,30.27,SSW,213,10.0,13.0,72,0.00,,CLR,0.00,VWS V13.01,2013-04-04 08:18:00,
2013-04-04 04:23:00,32.8,25.1,30.27,SSW,205,10.0,13.0,73,0.00,,CLR,0.00,VWS V13.01,2013-04-04 08:23:00,
2013-04-04 04:28:00,32.7,24.7,30.27,SW,217,10.0,11.0,72,0.00,,CLR,0.00,VWS V13.01,2013-04-04 08:28:00,
2013-04-04 04:33:00,32.6,24.2,30.27,SW,214,9.0,11.0,71,0.00,,CLR,0.00,VWS V13.01,2013-04-04 08:33:00,
2013-04-04 04:38:00,32.5,25.1,30.27,SSW,211,7.0,11.0,74,0.00,,CLR,0.00,VWS V13.01,2013-04-04 08:38:00,
2013-04-04 04:43:00,32.4,24.7,30.27,SW,229,9.0,11.0,73,0.00,,CLR,0.00,VWS V13.01,2013-04-04 08:43:00,
2013-04-04 04:48:00,32.4,24.7,30.27,SW,219,9.0,11.0,73,0.00,,CLR,0.00,VWS V13.01,2013-04-04 08:48:00,
2013-04-04 04:53:00,32.3,24.3,30.27,SW,219,10.0,12.0,72,0.00,,CLR,0.00,VWS V13.01,2013-04-04 08:53:00,
2013-04-04 04:58:00,32.4,24.7,30.27,SW,226,9.0,11.0,73,0.00,,CLR,0.00,VWS V13.01,2013-04-04 08:58:00,
2013-04-04 05:03:00,32.3,25.0,30.27,SW,216,7.0,11.0,74,0.00,,CLR,0.00,VWS V13.01,2013-04-04 09:03:00,
2013-04-04 05:09:00,32.3,25.3,30.27,SW,227,8.0,10.0,75,0.00,,CLR,0.00,VWS V13.01,2013-04-04 09:09:00,
2013-04-04 05:14:00,32.3,25.9,30.27,SSW,200,8.0,9.0,77,0.00,,CLR,0.00,VWS V13.01,2013-04-04 09:14:00,
2013-04-04 05:19:00,32.4,25.4,30.27,SSW,205,9.0,11.0,75,0.00,,CLR,0.00,VWS V13.01,2013-04-04 09:19:00,
2013-04-04 05:24:00,32.5,25.8,30.26,SSW,202,10.0,11.0,76,0.00,,CLR,0.00,VWS V13.01,2013-04-04 09:24:00,
2013-04-04 05:29:00,32.6,25.6,30.26,SSW,198,13.0,13.0,75,0.00,,CLR,0.00,VWS V13.01,2013-04-04 09:29:00,
2013-04-04 05:34:00,32.8,26.1,30.26,SSW,205,10.0,12.0,76,0.00,,CLR,0.00,VWS V13.01,2013-04-04 09:34:00,
2013-04-04 05:39:00,32.9,26.8,30.26,SSW,213,9.0,12.0,78,0.00,,CLR,0.00,VWS V13.01,2013-04-04 09:39:00,
2013-04-04 05:44:00,33.0,26.9,30.26,SW,217,9.0,14.0,78,0.00,,CLR,0.00,VWS V13.01,2013-04-04 09:44:00,
2013-04-04 05:49:00,32.9,26.5,30.26,SSW,201,12.0,14.0,77,0.00,,CLR,0.00,VWS V13.01,2013-04-04 09:49:00,
2013-04-04 05:55:00,32.9,26.5,30.26,SSW,211,12.0,15.0,77,0.00,,CLR,0.00,VWS V13.01,2013-04-04 09:55:00,
2013-04-04 06:00:00,32.9,26.2,30.26,SSW,205,11.0,15.0,76,0.00,,CLR,0.00,VWS V13.01,2013-04-04 10:00:00,
2013-04-04 06:05:00,32.9,26.5,30.26,SSW,209,12.0,14.0,77,0.00,,CLR,0.00,VWS V13.01,2013-04-04 10:05:00,
2013-04-04 06:10:00,32.9,25.9,30.26,SSW,209,8.0,14.0,75,0.00,,CLR,0.00,VWS V13.01,2013-04-04 10:10:00,
2013-04-04 06:15:00,32.8,26.1,30.25,SW,225,14.0,15.0,76,0.00,,CLR,0.00,VWS V13.01,2013-04-04 10:15:00,
2013-04-04 06:20:00,32.8,26.7,30.25,SSW,213,11.0,13.0,78,0.00,,CLR,0.00,VWS V13.01,2013-04-04 10:20:00,
2013-04-04 06:25:00,32.7,26.3,30.25,SW,215,9.0,15.0,77,0.00,,CLR,0.00,VWS V13.01,2013-04-04 10:25:00,
2013-04-04 06:30:00,32.6,26.5,30.25,SW,215,12.0,15.0,78,0.00,,CLR,0.00,VWS V13.01,2013-04-04 10:30:00,
2013-04-04 06:35:00,32.6,26.5,30.25,SW,216,9.0,15.0,78,0.00,,CLR,0.00,VWS V13.01,2013-04-04 10:35:00,
2013-04-04 06:40:00,32.6,26.2,30.25,SW,219,13.0,15.0,77,0.00,,CLR,0.00,VWS V13.01,2013-04-04 10:40:00,
2013-04-04 06:45:00,32.4,26.3,30.25,SSW,212,13.0,16.0,78,0.00,,CLR,0.00,VWS V13.01,2013-04-04 10:45:00,
2013-04-04 06:50:00,32.4,26.6,30.25,SW,218,13.0,14.0,79,0.00,,CLR,0.00,VWS V13.01,2013-04-04 10:50:00,
2013-04-04 06:55:00,32.4,26.0,30.25,SW,219,14.0,14.0,77,0.00,,CLR,0.00,VWS V13.01,2013-04-04 10:55:00,
2013-04-04 07:00:00,32.4,25.7,30.24,SSW,213,8.0,15.0,76,0.00,,CLR,0.00,VWS V13.01,2013-04-04 11:00:00,
2013-04-04 07:05:00,32.4,26.0,30.24,SSW,205,11.0,13.0,77,0.00,,FEW060,0.00,VWS V13.01,2013-04-04 11:05:00,
2013-04-04 07:11:00,32.4,26.0,30.24,SSW,200,11.0,17.0,77,0.00,,FEW060,0.00,VWS V13.01,2013-04-04 11:11:00,
2013-04-04 07:16:00,32.5,26.1,30.24,SSW,210,16.0,17.0,77,0.00,,FEW060,0.00,VWS V13.01,2013-04-04 11:16:00,
2013-04-04 07:21:00,32.5,26.1,30.23,SSW,205,14.0,16.0,77,0.00,,FEW060,0.00,VWS V13.01,2013-04-04 11:21:00,
2013-04-04 07:26:00,32.5,26.4,30.23,SSW,204,11.0,18.0,78,0.00,,FEW060,0.00,VWS V13.01,2013-04-04 11:26:00,
2013-04-04 07:31:00,32.4,26.0,30.23,SW,228,15.0,16.0,77,0.00,,FEW060,0.00,VWS V13.01,2013-04-04 11:31:00,
2013-04-04 07:36:00,32.5,25.8,30.23,SW,222,15.0,17.0,76,0.00,,FEW060,0.00,VWS V13.01,2013-04-04 11:36:00,
2013-04-04 07:41:00,32.5,26.1,30.23,SW,215,12.0,16.0,77,0.00,,FEW060,0.00,VWS V13.01,2013-04-04 11:41:00,
2013-04-04 07:46:00,32.6,26.5,30.23,SW,215,12.0,16.0,78,0.00,,FEW060,0.00,VWS V13.01,2013-04-04 11:46:00,
2013-04-04 07:52:00,32.6,25.9,30.22,SW,219,12.0,15.0,76,0.00,,FEW060,0.00,VWS V13.01,2013-04-04 11:52:00,
2013-04-04 07:57:00,32.6,25.6,30.22,SW,224,11.0,16.0,75,0.00,,FEW060,0.00,VWS V13.01,2013-04-04 11:57:00,
2013-04-04 08:02:00,32.6,25.2,30.22,SW,219,11.0,15.0,74,0.00,,BKN075,0.00,VWS V13.01,2013-04-04 12:02:00,
2013-04-04 08:07:00,32.8,25.4,30.22,SW,217,11.0,15.0,74,0.00,,BKN075,0.00,VWS V13.01,2013-04-04 12:07:00,
2013-04-04 08:12:00,32.8,25.8,30.22,SW,221,11.0,15.0,75,0.00,,BKN075,0.00,VWS V13.01,2013-04-04 12:12:00,
2013-04-04 08:17:00,32.9,25.5,30.22,SW,223,12.0,14.0,74,0.00,,BKN075,0.00,VWS V13.01,2013-04-04 12:17:00,
2013-04-04 08:22:00,33.0,25.0,30.22,SW,219,10.0,15.0,72,0.00,,BKN075,0.00,VWS V13.01,2013-04-04 12:22:00,
2013-04-04 08:27:00,33.2,25.8,30.22,SW,221,12.0,14.0,74,0.00,,BKN075,0.00,VWS V13.01,2013-04-04 12:27:00,
2013-04-04 08:32:00,33.2,25.2,30.22,SW,221,11.0,15.0,72,0.00,,BKN075,0.00,VWS V13.01,2013-04-04 12:32:00,
2013-04-04 08:37:00,33.4,24.7,30.22,SW,229,13.0,16.0,70,0.00,,BKN075,0.00,VWS V13.01,2013-04-04 12:37:00,
2013-04-04 08:42:00,33.6,25.5,30.21,SW,221,10.0,17.0,72,0.00,,BKN075,0.00,VWS V13.01,2013-04-04 12:42:00,
2013-04-04 08:47:00,33.7,24.6,30.21,SW,226,14.0,16.0,69,0.00,,BKN075,0.00,VWS V13.01,2013-04-04 12:47:00,
2013-04-04 08:52:00,33.9,25.2,30.21,SW,236,12.0,17.0,70,0.00,,BKN075,0.00,VWS V13.01,2013-04-04 12:52:00,
2013-04-04 08:57:00,34.1,25.4,30.20,SSW,206,11.0,16.0,70,0.00,,BKN075,0.00,VWS V13.01,2013-04-04 12:57:00,
2013-04-04 09:02:00,34.2,24.8,30.20,SW,230,11.0,17.0,68,0.00,,CLR,0.00,VWS V13.01,2013-04-04 13:02:00,
2013-04-04 09:07:00,34.4,25.0,30.20,SW,221,14.0,17.0,68,0.00,,CLR,0.00,VWS V13.01,2013-04-04 13:07:00,
2013-04-04 09:12:00,34.4,25.0,30.19,SW,217,12.0,17.0,68,0.00,,CLR,0.00,VWS V13.01,2013-04-04 13:12:00,
2013-04-04 09:17:00,34.5,25.7,30.19,SW,215,15.0,15.0,70,0.00,,CLR,0.00,VWS V13.01,2013-04-04 13:17:00,
2013-04-04 09:22:00,34.7,24.9,30.19,SSW,193,13.0,18.0,67,0.00,,CLR,0.00,VWS V13.01,2013-04-04 13:22:00,
2013-04-04 09:27:00,34.7,25.9,30.18,SSW,209,12.0,15.0,70,0.00,,CLR,0.00,VWS V13.01,2013-04-04 13:27:00,
2013-04-04 09:32:00,34.8,25.3,30.18,SW,223,12.0,17.0,68,0.00,,CLR,0.00,VWS V13.01,2013-04-04 13:32:00,
2013-04-04 09:37:00,35.0,26.2,30.17,SSW,199,10.0,16.0,70,0.00,,CLR,0.00,VWS V13.01,2013-04-04 13:37:00,
2013-04-04 09:42:00,35.1,26.0,30.17,SSW,196,14.0,17.0,69,0.00,,CLR,0.00,VWS V13.01,2013-04-04 13:42:00,
2013-04-04 09:47:00,35.2,25.7,30.17,SW,216,9.0,17.0,68,0.00,,CLR,0.00,VWS V13.01,2013-04-04 13:47:00,
2013-04-04 09:52:00,35.3,25.5,30.16,SSW,198,11.0,17.0,67,0.00,,CLR,0.00,VWS V13.01,2013-04-04 13:52:00,
2013-04-04 09:57:00,35.4,25.9,30.16,SW,215,14.0,15.0,68,0.00,,CLR,0.00,VWS V13.01,2013-04-04 13:57:00,
2013-04-04 10:02:00,35.6,25.7,30.15,SSW,207,13.0,16.0,67,0.00,,CLR,0.00,VWS V13.01,2013-04-04 14:02:00,
2013-04-04 10:07:00,35.9,25.7,30.15,SSW,211,10.0,18.0,66,0.00,,CLR,0.00,VWS V13.01,2013-04-04 14:07:00,
2013-04-04 10:12:00,35.9,26.4,30.15,South,189,10.0,16.0,68,0.00,,CLR,0.00,VWS V13.01,2013-04-04 14:12:00,
2013-04-04 10:17:00,35.9,25.7,30.14,SSW,209,8.0,16.0,66,0.00,,CLR,0.00,VWS V13.01,2013-04-04 14:17:00,
2013-04-04 10:23:00,36.2,26.0,30.14,SSW,210,10.0,14.0,66,0.00,,CLR,0.00,VWS V13.01,2013-04-04 14:23:00,
2013-04-04 10:28:00,36.6,25.6,30.14,SSW,213,12.0,16.0,64,0.00,,CLR,0.00,VWS V13.01,2013-04-04 14:28:00,
2013-04-04 10:33:00,36.7,27.1,30.14,SSW,211,9.0,13.0,68,0.00,,CLR,0.00,VWS V13.01,2013-04-04 14:33:00,
2013-04-04 10:38:00,36.9,25.5,30.13,SSW,209,9.0,16.0,63,0.00,,CLR,0.00,VWS V13.01,2013-04-04 14:38:00,
2013-04-04 10:43:00,37.0,27.8,30.13,SSW,213,10.0,12.0,69,0.00,,CLR,0.00,VWS V13.01,2013-04-04 14:43:00,
2013-04-04 10:48:00,37.4,27.1,30.12,SW,234,16.0,22.0,66,0.00,,CLR,0.00,VWS V13.01,2013-04-04 14:48:00,
2013-04-04 10:53:00,37.9,27.6,30.12,SW,229,12.0,19.0,66,0.00,,CLR,0.00,VWS V13.01,2013-04-04 14:53:00,
2013-04-04 10:58:00,38.1,27.0,30.12,SW,228,12.0,13.0,64,0.00,,CLR,0.00,VWS V13.01,2013-04-04 14:58:00,
2013-04-04 11:03:00,38.7,26.8,30.12,SW,226,12.0,16.0,62,0.00,,BKN049,0.00,VWS V13.01,2013-04-04 15:03:00,
2013-04-04 11:08:00,39.1,26.8,30.11,WSW,249,17.0,19.0,61,0.00,,BKN049,0.00,VWS V13.01,2013-04-04 15:08:00,
2013-04-04 11:13:00,39.1,27.6,30.11,SW,223,11.0,17.0,63,0.00,,BKN049,0.00,VWS V13.01,2013-04-04 15:13:00,
2013-04-04 11:18:00,39.3,27.8,30.11,SW,229,15.0,15.0,63,0.00,,BKN049,0.00,VWS V13.01,2013-04-04 15:18:00,
2013-04-04 11:23:00,39.5,27.6,30.10,SSW,208,14.0,15.0,62,0.00,,BKN049,0.00,VWS V13.01,2013-04-04 15:23:00,
2013-04-04 11:28:00,39.8,27.1,30.10,WSW,242,14.0,16.0,60,0.00,,BKN049,0.00,VWS V13.01,2013-04-04 15:28:00,
2013-04-04 11:33:00,40.0,27.6,30.10,SW,221,10.0,18.0,61,0.00,,BKN049,0.00,VWS V13.01,2013-04-04 15:33:00,
2013-04-04 11:38:00,39.9,27.6,30.09,SW,232,12.0,16.0,61,0.00,,BKN049,0.00,VWS V13.01,2013-04-04 15:38:00,
2013-04-04 11:43:00,40.6,27.4,30.09,WSW,238,11.0,22.0,59,0.00,,BKN049,0.00,VWS V13.01,2013-04-04 15:43:00,
2013-04-04 11:48:00,40.7,27.1,30.09,WSW,246,10.0,16.0,58,0.00,,BKN049,0.00,VWS V13.01,2013-04-04 15:48:00,
2013-04-04 11:53:00,41.1,27.5,30.08,SW,215,12.0,20.0,58,0.00,,BKN049,0.00,VWS V13.01,2013-04-04 15:53:00,
2013-04-04 11:58:00,41.6,25.8,30.08,SSW,211,10.0,21.0,53,0.00,,BKN049,0.00,VWS V13.01,2013-04-04 15:58:00,
2013-04-04 12:03:00,41.4,28.2,30.08,SSW,209,13.0,19.0,59,0.00,,CLR,0.00,VWS V13.01,2013-04-04 16:03:00,
2013-04-04 12:08:00,41.7,28.0,30.07,SW,226,15.0,20.0,58,0.00,,CLR,0.00,VWS V13.01,2013-04-04 16:08:00,
2013-04-04 12:13:00,41.6,28.8,30.07,SW,228,14.0,16.0,60,0.00,,CLR,0.00,VWS V13.01,2013-04-04 16:13:00,
2013-04-04 12:18:00,41.8,28.1,30.07,SSW,203,15.0,18.0,58,0.00,,CLR,0.00,VWS V13.01,2013-04-04 16:18:00,
2013-04-04 12:24:00,41.8,29.0,30.07,SW,220,7.0,18.0,60,0.00,,CLR,0.00,VWS V13.01,2013-04-04 16:24:00,
2013-04-04 12:29:00,42.1,28.4,30.06,SW,231,9.0,18.0,58,0.00,,CLR,0.00,VWS V13.01,2013-04-04 16:29:00,
2013-04-04 12:34:00,42.4,28.7,30.06,SW,223,10.0,19.0,58,0.00,,CLR,0.00,VWS V13.01,2013-04-04 16:34:00,
2013-04-04 12:39:00,42.7,28.1,30.06,SW,224,13.0,17.0,56,0.00,,CLR,0.00,VWS V13.01,2013-04-04 16:39:00,
2013-04-04 12:44:00,42.6,28.9,30.05,WSW,244,12.0,16.0,58,0.00,,CLR,0.00,VWS V13.01,2013-04-04 16:44:00,
2013-04-04 12:50:00,42.9,28.3,30.05,SW,223,13.0,20.0,56,0.00,,CLR,0.00,VWS V13.01,2013-04-04 16:50:00,
2013-04-04 12:55:00,42.8,29.5,30.04,SW,228,16.0,17.0,59,0.00,,CLR,0.00,VWS V13.01,2013-04-04 16:55:00,
2013-04-04 13:00:00,43.7,28.2,30.04,SW,234,17.0,18.0,54,0.00,,CLR,0.00,VWS V13.01,2013-04-04 17:00:00,
2013-04-04 13:05:00,43.3,29.1,30.03,SSW,196,15.0,18.0,57,0.00,,CLR,0.00,VWS V13.01,2013-04-04 17:05:00,
2013-04-04 13:10:00,43.2,30.3,30.03,SW,225,10.0,17.0,60,0.00,,CLR,0.00,VWS V13.01,2013-04-04 17:10:00,
2013-04-04 13:15:00,43.3,29.1,30.03,SW,225,13.0,16.0,57,0.00,,CLR,0.00,VWS V13.01,2013-04-04 17:15:00,
2013-04-04 13:20:00,43.8,28.7,30.03,SW,234,15.0,17.0,55,0.00,,CLR,0.00,VWS V13.01,2013-04-04 17:20:00,
2013-04-04 13:25:00,44.0,28.4,30.02,SW,216,14.0,19.0,54,0.00,,CLR,0.00,VWS V13.01,2013-04-04 17:25:00,
2013-04-04 13:30:00,44.4,28.4,30.02,SW,228,13.0,21.0,53,0.00,,CLR,0.00,VWS V13.01,2013-04-04 17:30:00,
2013-04-04 13:35:00,44.6,28.1,30.02,SW,233,17.0,19.0,52,0.00,,CLR,0.00,VWS V13.01,2013-04-04 17:35:00,
2013-04-04 13:40:00,44.8,28.3,30.02,SSW,210,11.0,19.0,52,0.00,,CLR,0.00,VWS V13.01,2013-04-04 17:40:00,
2013-04-04 13:45:00,44.7,30.0,30.02,SW,229,10.0,20.0,56,0.00,,CLR,0.00,VWS V13.01,2013-04-04 17:45:00,
2013-04-04 13:50:00,45.0,28.0,30.01,SW,228,10.0,20.0,51,0.00,,CLR,0.00,VWS V13.01,2013-04-04 17:50:00,
2013-04-04 13:55:00,44.8,29.6,30.01,SSW,205,12.0,16.0,55,0.00,,CLR,0.00,VWS V13.01,2013-04-04 17:55:00,
2013-04-04 14:00:00,43.2,32.2,30.01,SW,226,12.0,15.0,65,0.00,,CLR,0.00,VWS V13.01,2013-04-04 18:00:00,
2013-04-04 14:05:00,44.7,29.5,30.01,SW,223,12.0,16.0,55,0.00,,CLR,0.00,VWS V13.01,2013-04-04 18:05:00,
2013-04-04 14:11:00,45.5,28.9,30.00,SW,229,11.0,17.0,52,0.00,,CLR,0.00,VWS V13.01,2013-04-04 18:11:00,
2013-04-04 14:15:00,45.4,30.2,30.00,SW,233,13.0,16.0,55,0.00,,CLR,0.00,VWS V13.01,2013-04-04 18:15:00,
2013-04-04 14:21:00,44.7,31.7,30.00,South,182,6.0,14.0,60,0.00,,CLR,0.00,VWS V13.01,2013-04-04 18:21:00,
2013-04-04 14:26:00,44.7,31.7,30.00,South,180,14.0,17.0,60,0.00,,CLR,0.00,VWS V13.01,2013-04-04 18:26:00,
2013-04-04 14:31:00,41.8,31.7,29.99,SSE,166,11.0,15.0,67,0.00,,CLR,0.00,VWS V13.01,2013-04-04 18:31:00,
2013-04-04 14:36:00,43.8,30.8,29.99,SW,223,13.0,15.0,60,0.00,,CLR,0.00,VWS V13.01,2013-04-04 18:36:00,
2013-04-04 14:42:00,45.8,31.0,29.98,SSW,207,12.0,20.0,56,0.00,,CLR,0.00,VWS V13.01,2013-04-04 18:42:00,
2013-04-04 14:47:00,44.0,31.8,29.98,South,180,9.0,17.0,62,0.00,,CLR,0.00,VWS V13.01,2013-04-04 18:47:00,
2013-04-04 14:52:00,42.4,31.9,29.98,SSW,193,9.0,14.0,66,0.00,,CLR,0.00,VWS V13.01,2013-04-04 18:52:00,
2013-04-04 14:57:00,42.0,32.2,29.97,South,188,11.0,18.0,68,0.00,,CLR,0.00,VWS V13.01,2013-04-04 18:57:00,
2013-04-04 15:02:00,41.4,32.4,29.97,SSW,196,13.0,16.0,70,0.00,,CLR,0.00,VWS V13.01,2013-04-04 19:02:00,
2013-04-04 15:07:00,41.4,32.4,29.97,SSE,168,11.0,19.0,70,0.00,,CLR,0.00,VWS V13.01,2013-04-04 19:07:00,
2013-04-04 15:12:00,41.7,31.9,29.97,SSE,166,16.0,20.0,68,0.00,,CLR,0.00,VWS V13.01,2013-04-04 19:12:00,
2013-04-04 15:17:00,41.7,32.3,29.96,South,182,13.0,17.0,69,0.00,,CLR,0.00,VWS V13.01,2013-04-04 19:17:00,
2013-04-04 15:22:00,41.5,32.1,29.96,South,176,9.0,18.0,69,0.00,,CLR,0.00,VWS V13.01,2013-04-04 19:22:00,
2013-04-04 15:27:00,41.6,32.9,29.96,SSW,201,7.0,14.0,71,0.00,,CLR,0.00,VWS V13.01,2013-04-04 19:27:00,
2013-04-04 15:32:00,41.7,32.7,29.95,SSE,164,8.0,19.0,70,0.00,,CLR,0.00,VWS V13.01,2013-04-04 19:32:00,
2013-04-04 15:37:00,41.5,32.5,29.95,South,170,11.0,18.0,70,0.00,,CLR,0.00,VWS V13.01,2013-04-04 19:37:00,
2013-04-04 15:42:00,41.5,32.8,29.95,SSE,167,16.0,16.0,71,0.00,,CLR,0.00,VWS V13.01,2013-04-04 19:42:00,
2013-04-04 15:47:00,41.7,32.7,29.95,South,184,14.0,16.0,70,0.00,,CLR,0.00,VWS V13.01,2013-04-04 19:47:00,
2013-04-04 15:52:00,41.5,33.2,29.94,SSE,167,14.0,17.0,72,0.00,,CLR,0.00,VWS V13.01,2013-04-04 19:52:00,
2013-04-04 15:57:00,41.4,32.7,29.94,SSW,194,14.0,15.0,71,0.00,,CLR,0.00,VWS V13.01,2013-04-04 19:57:00,
2013-04-04 16:03:00,41.4,33.4,29.94,SSE,162,9.0,15.0,73,0.00,,BKN060,0.00,VWS V13.01,2013-04-04 20:03:00,
2013-04-04 16:08:00,41.5,33.5,29.93,South,173,11.0,15.0,73,0.00,,BKN060,0.00,VWS V13.01,2013-04-04 20:08:00,
2013-04-04 16:13:00,41.8,33.8,29.93,South,169,9.0,15.0,73,0.00,,BKN060,0.00,VWS V13.01,2013-04-04 20:13:00,
2013-04-04 16:18:00,42.1,33.4,29.93,SSE,168,8.0,15.0,71,0.00,,BKN060,0.00,VWS V13.01,2013-04-04 20:18:00,
2013-04-04 16:23:00,42.2,33.5,29.92,South,186,13.0,15.0,71,0.00,,BKN060,0.00,VWS V13.01,2013-04-04 20:23:00,
2013-04-04 16:28:00,42.2,34.2,29.92,South,178,10.0,14.0,73,0.00,,BKN060,0.00,VWS V13.01,2013-04-04 20:28:00,
2013-04-04 16:33:00,41.9,33.9,29.92,SSE,165,10.0,13.0,73,0.00,,BKN060,0.00,VWS V13.01,2013-04-04 20:33:00,
2013-04-04 16:38:00,43.4,33.6,29.91,SW,229,16.0,18.0,68,0.00,,BKN060,0.00,VWS V13.01,2013-04-04 20:38:00,
2013-04-04 16:43:00,47.9,33.0,29.91,South,188,14.0,21.0,56,0.00,,BKN060,0.00,VWS V13.01,2013-04-04 20:43:00,
2013-04-04 16:48:00,44.9,33.9,29.91,South,180,7.0,16.0,65,0.00,,BKN060,0.00,VWS V13.01,2013-04-04 20:48:00,
2013-04-04 16:53:00,43.3,33.8,29.91,South,174,8.0,14.0,69,0.00,,BKN060,0.00,VWS V13.01,2013-04-04 20:53:00,
2013-04-04 16:58:00,42.2,33.8,29.91,South,176,11.0,15.0,72,0.00,,BKN060,0.00,VWS V13.01,2013-04-04 20:58:00,
2013-04-04 17:03:00,42.0,34.0,29.91,South,172,8.0,14.0,73,0.00,,OVC065,0.00,VWS V13.01,2013-04-04 21:03:00,
2013-04-04 17:08:00,42.3,34.3,29.90,South,172,6.0,12.0,73,0.00,,OVC065,0.00,VWS V13.01,2013-04-04 21:08:00,
2013-04-04 17:13:00,42.7,34.3,29.90,SSE,160,7.0,11.0,72,0.00,,OVC065,0.00,VWS V13.01,2013-04-04 21:13:00,
2013-04-04 17:18:00,42.8,34.1,29.91,SSW,196,4.0,13.0,71,0.00,,OVC065,0.00,VWS V13.01,2013-04-04 21:18:00,
2013-04-04 17:23:00,42.4,34.4,29.90,SSE,162,12.0,14.0,73,0.00,,OVC065,0.00,VWS V13.01,2013-04-04 21:23:00,
2013-04-04 17:29:00,42.2,34.2,29.90,SSE,163,9.0,13.0,73,0.00,,OVC065,0.00,VWS V13.01,2013-04-04 21:29:00,
2013-04-04 17:34:00,42.4,34.4,29.91,SSW,198,10.0,14.0,73,0.00,,OVC065,0.00,VWS V13.01,2013-04-04 21:34:00,
2013-04-04 17:39:00,42.9,34.2,29.90,South,190,14.0,16.0,71,0.00,,OVC065,0.00,VWS V13.01,2013-04-04 21:39:00,
2013-04-04 17:44:00,42.7,34.3,29.90,South,179,12.0,15.0,72,0.00,,OVC065,0.00,VWS V13.01,2013-04-04 21:44:00,
2013-04-04 17:49:00,43.5,34.0,29.90,SSW,204,8.0,12.0,69,0.00,,OVC065,0.00,VWS V13.01,2013-04-04 21:49:00,
2013-04-04 17:54:00,43.0,34.2,29.90,SSE,168,6.0,12.0,71,0.00,,OVC065,0.00,VWS V13.01,2013-04-04 21:54:00,
2013-04-04 17:59:00,41.9,33.9,29.90,South,170,7.0,12.0,73,0.00,,OVC065,0.00,VWS V13.01,2013-04-04 21:59:00,
2013-04-04 18:04:00,41.8,34.5,29.90,South,182,5.0,13.0,75,0.00,,OVC060,0.00,VWS V13.01,2013-04-04 22:04:00,
2013-04-04 18:09:00,41.5,34.2,29.90,South,184,9.0,12.0,75,0.00,,OVC060,0.00,VWS V13.01,2013-04-04 22:09:00,
2013-04-04 18:15:00,42.2,34.2,29.90,South,191,6.0,14.0,73,0.00,,OVC060,0.00,VWS V13.01,2013-04-04 22:15:00,
2013-04-04 18:20:00,41.9,34.2,29.90,SSW,198,7.0,11.0,74,0.00,,OVC060,0.00,VWS V13.01,2013-04-04 22:20:00,
2013-04-04 18:25:00,43.0,34.6,29.90,SSW,205,5.0,11.0,72,0.00,,OVC060,0.00,VWS V13.01,2013-04-04 22:25:00,
2013-04-04 18:30:00,44.8,33.4,29.90,WSW,237,9.0,13.0,64,0.00,,OVC060,0.00,VWS V13.01,2013-04-04 22:30:00,
2013-04-04 18:35:00,46.7,33.6,29.91,SW,230,7.0,13.0,60,0.00,,OVC060,0.00,VWS V13.01,2013-04-04 22:35:00,
2013-04-04 18:40:00,46.8,33.2,29.91,SW,228,8.0,13.0,59,0.00,,OVC060,0.00,VWS V13.01,2013-04-04 22:40:00,
2013-04-04 18:45:00,46.3,32.8,29.91,SW,236,9.0,13.0,59,0.00,,OVC060,0.00,VWS V13.01,2013-04-04 22:45:00,
2013-04-04 18:50:00,46.9,32.9,29.91,WSW,238,9.0,11.0,58,0.00,,OVC060,0.00,VWS V13.01,2013-04-04 22:50:00,
2013-04-04 18:55:00,46.5,33.4,29.92,SW,225,8.0,11.0,60,0.00,,OVC060,0.00,VWS V13.01,2013-04-04 22:55:00,
2013-04-04 19:00:00,46.4,32.9,29.92,SW,235,7.0,11.0,59,0.00,,OVC060,0.00,VWS V13.01,2013-04-04 23:00:00,
2013-04-04 19:05:00,45.6,33.3,29.92,WSW,245,5.0,8.0,62,0.00,,,0.00,VWS V13.01,2013-04-04 23:05:00,
2013-04-04 19:10:00,45.7,33.4,29.92,West,259,1.0,6.0,62,0.00,,,0.00,VWS V13.01,2013-04-04 23:10:00,
2013-04-04 19:15:00,46.6,33.0,29.93,WSW,254,1.0,4.0,59,0.00,,,0.00,VWS V13.01,2013-04-04 23:15:00,
2013-04-04 19:20:00,47.7,33.2,29.94,WNW,302,6.0,8.0,57,0.00,,,0.00,VWS V13.01,2013-04-04 23:20:00,
2013-04-04 19:25:00,45.9,32.8,29.94,East,92,3.0,9.0,60,0.00,,,0.00,VWS V13.01,2013-04-04 23:25:00,
2013-04-04 19:30:00,44.0,32.6,29.94,NW,310,5.0,10.0,64,0.00,,,0.00,VWS V13.01,2013-04-04 23:30:00,
2013-04-04 19:35:00,42.9,32.3,29.95,ENE,69,2.0,8.0,66,0.00,,,0.00,VWS V13.01,2013-04-04 23:35:00,
2013-04-04 19:40:00,42.2,32.4,29.95,NE,42,4.0,7.0,68,0.00,,,0.00,VWS V13.01,2013-04-04 23:40:00,
2013-04-04 19:45:00,41.7,32.3,29.95,NNE,30,2.0,6.0,69,0.00,,,0.00,VWS V13.01,2013-04-04 23:45:00,
2013-04-04 19:50:00,41.4,32.4,29.95,NE,40,1.0,5.0,70,0.00,,,0.00,VWS V13.01,2013-04-04 23:50:00,
2013-04-04 19:55:00,41.2,32.5,29.95,ENE,76,0.0,4.0,71,0.00,,,0.00,VWS V13.01,2013-04-04 23:55:00,
2013-04-04 20:00:00,41.1,32.4,29.96,WNW,292,1.0,3.0,71,0.00,,,0.00,VWS V13.01,2013-04-05 00:00:00,
2013-04-04 20:05:00,41.1,32.4,29.96,ENE,69,0.0,5.0,71,0.00,,OVC060,0.00,VWS V13.01,2013-04-05 00:05:00,
2013-04-04 20:10:00,40.9,32.6,29.96,NNW,348,1.0,7.0,72,0.00,,OVC060,0.00,VWS V13.01,2013-04-05 00:10:00,
2013-04-04 20:15:00,40.9,32.9,29.97,NE,34,1.0,3.0,73,0.00,,OVC060,0.00,VWS V13.01,2013-04-05 00:15:00,
2013-04-04 20:20:00,40.8,33.2,29.97,North,11,0.0,2.0,74,0.00,,OVC060,0.00,VWS V13.01,2013-04-05 00:20:00,
2013-04-04 20:25:00,40.8,33.5,29.97,North,355,1.0,2.0,75,0.00,,OVC060,0.00,VWS V13.01,2013-04-05 00:25:00,
2013-04-04 20:30:00,40.7,33.4,29.98,NW,314,0.0,3.0,75,0.00,,OVC060,0.00,VWS V13.01,2013-04-05 00:30:00,
2013-04-04 20:35:00,40.6,33.3,29.98,NNW,331,0.0,1.0,75,0.00,,OVC060,0.00,VWS V13.01,2013-04-05 00:35:00,
2013-04-04 20:40:00,40.6,33.6,29.97,NNW,331,0.0,1.0,76,0.00,,OVC060,0.00,VWS V13.01,2013-04-05 00:40:00,
2013-04-04 20:45:00,40.4,33.5,29.97,East,100,0.0,2.0,76,0.00,,OVC060,0.00,VWS V13.01,2013-04-05 00:45:00,
2013-04-04 20:50:00,40.0,33.4,29.97,East,99,1.0,2.0,77,0.00,,OVC060,0.00,VWS V13.01,2013-04-05 00:50:00,
2013-04-04 20:55:00,39.8,33.5,29.98,East,97,1.0,2.0,78,0.00,,OVC060,0.00,VWS V13.01,2013-04-05 00:55:00,
2013-04-04 21:00:00,39.8,33.8,29.98,East,88,2.0,2.0,79,0.00,,OVC060,0.00,VWS V13.01,2013-04-05 01:00:00,
2013-04-04 21:05:00,39.6,33.3,29.98,NW,324,2.0,6.0,78,0.00,,OVC060,0.00,VWS V13.01,2013-04-05 01:05:00,
2013-04-04 21:10:00,39.8,33.5,29.98,NW,315,0.0,2.0,78,0.00,,OVC060,0.00,VWS V13.01,2013-04-05 01:10:00,
2013-04-04 21:15:00,40.0,33.7,29.98,NW,308,0.0,2.0,78,0.00,,OVC060,0.00,VWS V13.01,2013-04-05 01:15:00,
2013-04-04 21:21:00,40.6,34.3,29.98,WNW,299,2.0,5.0,78,0.00,,OVC060,0.00,VWS V13.01,2013-04-05 01:21:00,
2013-04-04 21:26:00,41.7,34.7,29.99,WNW,292,4.0,8.0,76,0.00,,OVC060,0.00,VWS V13.01,2013-04-05 01:26:00,
2013-04-04 21:31:00,42.3,35.0,29.99,NW,321,6.0,6.0,75,0.00,,OVC060,0.00,VWS V13.01,2013-04-05 01:31:00,
2013-04-04 21:36:00,42.5,34.8,29.99,West,277,3.0,8.0,74,0.00,,OVC060,0.00,VWS V13.01,2013-04-05 01:36:00,
2013-04-04 21:41:00,42.5,34.8,29.99,WNW,299,4.0,7.0,74,0.00,,OVC060,0.00,VWS V13.01,2013-04-05 01:41:00,
2013-04-04 21:46:00,42.6,34.6,29.99,West,276,5.0,9.0,73,0.00,,OVC060,0.00,VWS V13.01,2013-04-05 01:46:00,
2013-04-04 21:51:00,42.5,34.5,29.99,West,259,7.0,11.0,73,0.00,,OVC060,0.00,VWS V13.01,2013-04-05 01:51:00,
2013-04-04 21:56:00,42.5,34.5,29.99,NNW,333,6.0,10.0,73,0.00,,OVC060,0.00,VWS V13.01,2013-04-05 01:56:00,
2013-04-04 22:01:00,42.3,34.6,30.00,NW,304,4.0,9.0,74,0.00,,OVC060,0.00,VWS V13.01,2013-04-05 02:01:00,
2013-04-04 22:06:00,42.2,34.5,30.00,NW,311,6.0,7.0,74,0.00,,OVC065,0.00,VWS V13.01,2013-04-05 02:06:00,
2013-04-04 22:11:00,42.0,34.3,30.00,NW,321,4.0,8.0,74,0.00,,OVC065,0.00,VWS V13.01,2013-04-05 02:11:00,
2013-04-04 22:16:00,41.9,34.6,30.00,NW,316,5.0,9.0,75,0.00,,OVC065,0.00,VWS V13.01,2013-04-05 02:16:00,
2013-04-04 22:21:00,41.7,34.4,30.00,NW,313,5.0,10.0,75,0.00,,OVC065,0.00,VWS V13.01,2013-04-05 02:21:00,
2013-04-04 22:26:00,41.5,34.5,30.00,NW,323,5.0,10.0,76,0.00,,OVC065,0.00,VWS V13.01,2013-04-05 02:26:00,
2013-04-04 22:31:00,41.3,34.3,30.00,WNW,288,4.0,7.0,76,0.00,,OVC065,0.00,VWS V13.01,2013-04-05 02:31:00,
2013-04-04 22:36:00,41.1,34.1,30.00,WNW,293,2.0,5.0,76,0.00,,OVC065,0.00,VWS V13.01,2013-04-05 02:36:00,
2013-04-04 22:41:00,40.9,34.3,30.00,NW,315,3.0,6.0,77,0.00,,OVC065,0.00,VWS V13.01,2013-04-05 02:41:00,
2013-04-04 22:46:00,40.7,34.1,30.00,NW,304,3.0,5.0,77,0.00,,OVC065,0.00,VWS V13.01,2013-04-05 02:46:00,
2013-04-04 22:51:00,40.4,33.8,30.00,NW,314,2.0,4.0,77,0.00,,OVC065,0.00,VWS V13.01,2013-04-05 02:51:00,
2013-04-04 22:56:00,40.0,33.7,30.00,NW,306,1.0,4.0,78,0.00,,OVC065,0.00,VWS V13.01,2013-04-05 02:56:00,
2013-04-04 23:01:00,39.8,33.5,30.00,NW,315,2.0,3.0,78,0.00,,,0.00,VWS V13.01,2013-04-05 03:01:00,
2013-04-04 23:06:00,39.5,33.5,30.00,NNW,327,2.0,4.0,79,0.00,,,0.00,VWS V13.01,2013-04-05 03:06:00,
2013-04-04 23:12:00,39.3,33.3,30.00,NW,325,3.0,3.0,79,0.00,,,0.00,VWS V13.01,2013-04-05 03:12:00,
2013-04-04 23:17:00,39.2,33.6,30.00,NW,325,1.0,4.0,80,0.00,,,0.00,VWS V13.01,2013-04-05 03:17:00,
2013-04-04 23:22:00,39.1,33.5,30.00,NW,321,3.0,4.0,80,0.00,,,0.00,VWS V13.01,2013-04-05 03:22:00,
2013-04-04 23:27:00,39.0,33.4,30.00,NW,309,1.0,5.0,80,0.00,,,0.00,VWS V13.01,2013-04-05 03:27:00,
2013-04-04 23:32:00,38.9,33.3,30.00,NW,317,2.0,4.0,80,0.00,,,0.00,VWS V13.01,2013-04-05 03:32:00,
2013-04-04 23:37:00,38.7,33.1,30.00,NW,321,0.0,4.0,80,0.00,,,0.00,VWS V13.01,2013-04-05 03:37:00,
2013-04-04 23:42:00,38.5,33.2,30.00,NW,325,3.0,3.0,81,0.00,,,0.00,VWS V13.01,2013-04-05 03:42:00,
2013-04-04 23:47:00,38.2,32.9,30.00,NW,321,1.0,3.0,81,0.00,,,0.00,VWS V13.01,2013-04-05 03:47:00,
2013-04-04 23:52:00,38.0,33.0,30.00,NNW,333,2.0,4.0,82,0.00,,,0.00,VWS V13.01,2013-04-05 03:52:00,
2013-04-04 23:57:00,37.8,32.8,30.00,NW,321,1.0,4.0,82,0.00,,,0.00,VWS V13.01,2013-04-05 03:57:00,